Latest Weather Observations for Point Stuart

IDD60901

Issued at 1:41 pm CST Monday 25 July 2016 (issued every 10 minutes, with the page automatically refreshed every 10 minutes)

About weather observations | Map of Darwin area stations | Latest observations for Darwin area | Other Formats
Station Details ID: 014254 Name: POINT STUART Lat: -12.24 Lon: 131.88 Height: 1.0 m
Data from the previous 72 hours. | See also: Recent months at Point Stuart
Date/Time
CST
Temp
°C
App
Temp
°C
Dew
Point
°C
Rel
Hum
%
Delta-T
°C
Wind Press
QNH
hPa
Press
MSL
hPa
Rain since
9am
mm
Dir  Spd
km/h
Gust
km/h
Spd
kts
Gust
kts
25/01:30pm 32.8 30.0 18.2 42 9.4 E 30 41 16 22 1010.8 - 0.0
25/01:00pm 32.9 32.5 20.1 47 8.5 ESE 22 32 12 17 1011.3 - 0.0
25/12:30pm 31.4 30.4 20.4 52 7.3 E 26 35 14 19 1011.8 - 0.0
25/12:00pm 30.4 29.8 21.2 58 6.2 E 26 33 14 18 1012.3 1012.3 0.0
25/11:30am 29.7 31.5 23.2 68 4.5 ENE 19 32 10 17 1012.7 - 0.0
25/11:00am 29.0 31.6 23.9 74 3.5 E 17 24 9 13 1013.1 - 0.0
25/10:30am 27.3 31.3 24.4 84 2.0 ENE 11 15 6 8 1013.4 - 0.0
25/10:00am 26.7 30.7 24.4 87 1.6 ESE 11 17 6 9 1013.7 - 0.0
25/09:30am 25.8 29.4 24.4 92 1.0 ESE 13 17 7 9 1013.7 - 0.0
25/09:00am 24.4 28.4 23.7 96 0.5 SE 9 15 5 8 1013.5 1013.5 0.0
25/08:30am 23.7 27.5 23.5 99 0.1 SSE 9 13 5 7 1013.5 - 0.0
25/08:00am 22.9 26.8 22.9 100 0.0 S 7 11 4 6 1013.3 - 0.0
25/07:30am 21.1 23.9 20.8 98 0.2 S 7 9 4 5 1012.9 - 0.0
25/07:00am 20.9 23.5 20.4 97 0.3 S 7 9 4 5 1012.6 - 0.0
25/06:30am 21.4 24.1 20.7 96 0.5 S 7 7 4 4 1012.3 - 0.0
25/06:00am 21.7 24.5 20.9 95 0.5 S 7 7 4 4 1012.0 1012.0 0.0
25/05:30am 21.1 23.5 20.1 94 0.6 S 7 9 4 5 1011.7 - 0.0
25/05:00am 21.2 23.5 19.8 92 0.9 S 7 7 4 4 1011.5 - 0.0
25/04:30am 21.4 23.8 20.0 92 0.9 S 7 9 4 5 1011.5 - 0.0
25/04:00am 21.6 23.9 19.9 90 1.1 S 7 9 4 5 1011.4 - 0.0
25/03:30am 21.7 24.6 19.8 89 1.2 S 4 9 2 5 1011.5 - 0.0
25/03:00am 22.0 24.3 19.9 88 1.3 S 7 9 4 5 1011.7 1011.7 0.0
25/02:30am 22.0 25.6 19.7 87 1.5 CALM 0 0 0 0 1011.9 - 0.0
25/02:00am 22.4 26.1 19.9 86 1.6 CALM 0 0 0 0 1012.2 - 0.0
25/01:30am 22.9 26.7 20.1 84 1.8 CALM 0 0 0 0 1012.3 - 0.0
25/01:00am 23.0 26.6 19.8 82 2.1 CALM 0 0 0 0 1012.4 - 0.0
25/12:30am 23.3 25.8 19.9 81 2.2 S 6 7 3 4 1012.3 - 0.0
25/12:00am 24.1 26.9 20.4 80 2.4 SSE 6 13 3 7 1012.3 1012.3 0.0
 
Date/Time
CST
Temp
°C
App
Temp
°C
Dew
Point
°C
Rel
Hum
%
Delta-T
°C
Wind Press
QNH
hPa
Press
MSL
hPa
Rain since
9am
mm
Dir  Spd
km/h
Gust
km/h
Spd
kts
Gust
kts
24/11:30pm 25.1 28.3 21.2 79 2.6 NE 6 7 3 4 1012.2 - 0.0
24/11:00pm 25.4 28.3 21.1 77 2.8 NE 7 9 4 5 1012.3 - 0.0
24/10:30pm 25.6 28.5 21.1 76 3.0 NNE 7 11 4 6 1012.4 - 0.0
24/10:00pm 26.0 29.0 21.2 75 3.2 NNE 7 9 4 5 1012.4 - 0.0
24/09:30pm 26.3 28.8 21.1 73 3.4 NNE 9 13 5 7 1012.2 - 0.0
24/09:00pm 26.6 29.1 21.1 72 3.6 NNE 9 17 5 9 1012.1 1012.1 0.0
24/08:30pm 26.7 29.2 21.0 71 3.8 N 9 17 5 9 1011.7 - 0.0
24/08:00pm 26.9 28.7 21.2 71 3.8 N 13 20 7 11 1011.2 - 0.0
24/07:30pm 27.0 29.0 20.8 69 4.1 N 11 19 6 10 1010.8 - 0.0
24/07:00pm 27.3 29.0 20.9 68 4.2 N 13 20 7 11 1010.5 - 0.0
24/06:30pm 27.8 29.9 20.9 66 4.6 N 11 17 6 9 1010.2 - 0.0
24/06:00pm 28.7 30.5 21.2 64 5.0 N 13 22 7 12 1010.1 1010.1 0.0
24/05:30pm 30.1 32.7 22.0 62 5.5 NNW 11 19 6 10 1009.7 - 0.0
24/05:00pm 31.1 32.7 22.1 58 6.1 NW 17 22 9 12 1009.1 - 0.0
24/04:30pm 31.7 34.2 22.4 58 6.3 NW 13 20 7 11 1009.0 - 0.0
24/04:00pm 32.0 34.1 22.4 57 6.6 NW 15 24 8 13 1009.0 - 0.0
24/03:30pm 32.5 35.1 22.6 56 6.8 N 13 20 7 11 1009.0 - 0.0
24/03:00pm 32.2 35.4 22.3 56 6.8 N 9 15 5 8 1009.4 1009.4 0.0
24/02:30pm 32.5 35.2 22.9 57 6.6 NNE 13 22 7 12 1009.8 - 0.0
24/02:00pm 32.4 34.7 22.8 57 6.6 NE 15 20 8 11 1010.3 - 0.0
24/01:30pm 32.0 34.6 22.7 58 6.4 NE 13 20 7 11 1010.8 - 0.0
24/01:00pm 31.5 33.8 22.8 60 6.0 ENE 15 22 8 12 1011.3 - 0.0
24/12:30pm 31.8 34.7 23.9 63 5.5 NE 15 22 8 12 1011.8 - 0.0
24/12:00pm 30.8 33.6 23.7 66 4.9 E 15 22 8 12 1012.3 1012.3 0.0
24/11:30am 30.1 32.6 23.8 69 4.4 ENE 17 22 9 12 1012.9 - 0.0
24/11:00am 29.8 33.6 24.7 74 3.6 ENE 13 22 7 12 1013.3 - 0.0
24/10:30am 29.1 33.0 24.9 78 2.9 ENE 13 17 7 9 1013.5 - 0.0
24/10:00am 28.3 32.6 24.9 82 2.4 ENE 11 17 6 9 1013.6 - 0.0
24/09:30am 27.5 31.4 24.9 86 1.8 ENE 13 17 7 9 1013.6 - 0.0
24/09:00am 26.6 32.2 24.8 90 1.3 SE 4 9 2 5 1013.4 - 0.0
24/08:30am 24.9 28.7 23.5 92 1.0 S 9 11 5 6 1013.2 - 0.0
24/08:00am 23.2 27.4 22.5 96 0.5 S 4 9 2 5 1012.9 - 0.0
24/07:30am 21.6 24.9 20.8 95 0.5 S 4 6 2 3 1012.5 - 0.0
24/07:00am 21.5 24.1 20.5 94 0.6 S 7 9 4 5 1012.3 - 0.0
24/06:30am 21.7 24.3 20.5 93 0.8 SSW 7 9 4 5 1012.0 - 0.0
24/06:00am 22.2 26.4 21.0 93 0.8 CALM 0 0 0 0 1011.8 1011.8 0.0
24/05:30am 22.4 25.5 21.4 94 0.7 S 7 11 4 6 1011.6 - 0.0
24/05:00am 22.0 24.8 20.8 93 0.8 S 7 9 4 5 1011.6 - 0.0
24/04:30am 22.0 24.8 20.8 93 0.8 SSW 7 9 4 5 1011.3 - 0.0
24/04:00am 22.0 24.9 20.6 92 0.9 SSW 6 7 3 4 1011.4 - 0.0
24/03:30am 21.4 25.1 19.9 91 1.0 CALM 0 6 0 3 1011.4 - 0.0
24/03:00am 21.9 25.7 20.2 90 1.1 CALM 0 0 0 0 1011.5 1011.5 0.0
24/02:30am 22.4 26.5 20.7 90 1.1 CALM 0 6 0 3 1011.7 - 0.0
24/02:00am 22.6 25.5 20.7 89 1.2 SE 6 7 3 4 1011.7 - 0.0
24/01:30am 22.7 26.0 20.8 89 1.2 ESE 4 7 2 4 1011.8 - 0.0
24/01:00am 22.7 26.2 20.4 87 1.5 ESE 2 6 1 3 1011.9 - 0.0
24/12:30am 23.3 27.5 21.0 87 1.5 CALM 0 2 0 1 1011.6 - 0.0
24/12:00am 23.3 27.3 20.6 85 1.8 CALM 0 0 0 0 1011.5 1011.5 0.0
 
Date/Time
CST
Temp
°C
App
Temp
°C
Dew
Point
°C
Rel
Hum
%
Delta-T
°C
Wind Press
QNH
hPa
Press
MSL
hPa
Rain since
9am
mm
Dir  Spd
km/h
Gust
km/h
Spd
kts
Gust
kts
23/11:30pm 23.6 26.9 20.7 84 1.9 SSW 4 7 2 4 1011.3 - 0.0
23/11:00pm 23.8 27.2 20.9 84 1.9 SW 4 7 2 4 1011.2 - 0.0
23/10:30pm 24.1 28.2 20.8 82 2.2 CALM 0 0 0 0 1011.1 - 0.0
23/10:00pm 24.5 27.6 21.0 81 2.3 WSW 6 7 3 4 1010.8 - 0.0
23/09:30pm 24.6 28.3 20.7 79 2.5 SW 2 6 1 3 1010.5 - 0.0
23/09:00pm 25.0 27.9 20.7 77 2.8 W 6 7 3 4 1010.2 1010.2 0.0
23/08:30pm 25.6 28.7 21.1 76 3.0 NW 6 7 3 4 1010.0 - 0.0
23/08:00pm 26.0 29.0 20.8 73 3.4 NNW 6 9 3 5 1009.7 - 0.0
23/07:30pm 26.5 29.3 20.8 71 3.8 WNW 7 9 4 5 1009.3 - 0.0
23/07:00pm 27.1 29.9 20.9 69 4.1 NW 7 9 4 5 1009.1 - 0.0
23/06:30pm 27.9 30.0 21.0 66 4.6 NW 11 15 6 8 1008.8 - 0.0
23/06:00pm 29.0 30.4 21.0 62 5.3 NW 15 19 8 10 1008.6 1008.6 0.0
23/05:30pm 30.0 31.0 21.1 59 5.9 NW 17 20 9 11 1008.4 - 0.0
23/05:00pm 30.5 31.5 21.0 57 6.3 NW 17 22 9 12 1008.5 - 0.0
23/04:30pm 31.2 33.3 21.7 57 6.4 NW 13 20 7 11 1008.5 - 0.0
23/04:00pm 31.2 32.1 20.8 54 6.9 NW 17 22 9 12 1008.7 - 0.0
23/03:30pm 31.7 33.2 20.6 51 7.4 N 13 20 7 11 1008.8 - 0.0
23/03:00pm 31.5 32.9 21.1 54 7.0 NNE 15 22 8 12 1009.1 1009.1 0.0
23/02:30pm 30.6 31.5 20.8 56 6.5 NNE 17 24 9 13 1009.5 - 0.0
23/02:00pm 31.4 33.6 21.8 56 6.5 N 13 24 7 13 1010.1 - 0.0
23/01:30pm 31.3 33.3 21.5 56 6.6 NNE 13 20 7 11 1010.6 - 0.0
23/01:00pm 31.0 32.2 21.5 57 6.4 NNE 17 26 9 14 1011.0 - 0.0
23/12:30pm 31.4 33.1 22.4 59 6.1 NE 17 24 9 13 1011.5 - 0.0
23/12:00pm 30.4 32.1 22.3 62 5.5 NE 17 22 9 12 1012.1 1012.1 0.0
23/11:30am 29.3 31.2 22.0 64 4.9 ENE 15 20 8 11 1012.6 - 0.0
23/11:00am 29.4 31.5 23.1 69 4.3 E 17 22 9 12 1013.0 - 0.0
23/10:30am 29.1 32.9 24.0 74 3.5 ENE 11 22 6 12 1013.1 - 0.0
23/10:00am 27.8 32.2 24.4 82 2.4 E 9 13 5 7 1013.3 - 0.0
23/09:30am 26.7 32.3 24.9 90 1.3 ESE 4 9 2 5 1013.2 - 0.0
23/09:00am 25.3 30.4 24.6 96 0.5 S 6 9 3 5 1013.0 1013.0 0.0
23/08:30am 23.7 28.0 23.7 100 0.0 SSW 7 9 4 5 1012.9 - 0.0
23/08:00am 22.2 26.7 22.2 100 0.0 S 2 6 1 3 1012.6 - 0.0
23/07:30am 21.1 24.2 21.1 100 0.0 SSW 6 7 3 4 1012.3 - 0.0
23/07:00am 21.0 23.4 20.8 99 0.1 S 9 11 5 6 1012.0 - 0.0
23/06:30am 20.8 23.0 20.3 97 0.3 S 9 9 5 5 1012.0 - 0.0
23/06:00am 21.1 23.7 20.4 96 0.5 S 7 9 4 5 1011.7 1011.7 0.0
23/05:30am 21.4 24.1 20.6 95 0.5 S 7 7 4 4 1011.5 - 0.0
23/05:00am 21.5 24.1 20.5 94 0.6 S 7 7 4 4 1011.3 - 0.0
23/04:30am 21.6 24.2 20.4 93 0.8 S 7 9 4 5 1011.0 - 0.0
23/04:00am 21.6 24.1 20.2 92 0.9 S 7 9 4 5 1010.9 - 0.0
23/03:30am 22.0 24.8 20.5 91 1.0 S 6 7 3 4 1011.1 - 0.0
23/03:00am 22.1 24.7 20.4 90 1.1 S 7 9 4 5 1011.1 1011.1 0.0
23/02:30am 22.1 24.5 20.0 88 1.3 S 7 9 4 5 1011.2 - 0.0
23/02:00am 22.4 24.8 20.1 87 1.5 S 7 9 4 5 1011.2 - 0.0
23/01:30am 22.6 25.0 20.1 86 1.6 S 7 9 4 5 1011.3 - 0.0
23/01:00am 23.3 26.2 20.6 85 1.8 S 6 7 3 4 1011.2 - 0.0
23/12:30am 24.3 28.8 21.6 85 1.8 CALM 0 0 0 0 1011.0 - 0.0
23/12:00am 24.7 27.7 22.0 85 1.8 NE 9 11 5 6 1011.0 1011.0 0.0
 
Date/Time
CST
Temp
°C
App
Temp
°C
Dew
Point
°C
Rel
Hum
%
Delta-T
°C
Wind Press
QNH
hPa
Press
MSL
hPa
Rain since
9am
mm
Dir  Spd
km/h
Gust
km/h
Spd
kts
Gust
kts
22/11:30pm 24.2 27.0 20.9 82 2.2 NNE 7 9 4 5 1011.2 - 0.0
22/11:00pm 24.0 27.9 20.3 80 2.4 CALM 0 0 0 0 1011.2 - 0.0
22/10:30pm 24.9 29.1 21.0 79 2.6 CALM 0 0 0 0 1011.1 - 0.0
22/10:00pm 25.4 29.4 21.3 78 2.7 N 2 6 1 3 1011.0 - 0.0
22/09:30pm 25.8 29.5 21.5 77 2.9 NNW 4 7 2 4 1010.8 - 0.0
22/09:00pm 26.1 29.3 21.3 75 3.2 NNW 6 9 3 5 1010.8 1010.8 0.0
22/08:30pm 25.8 28.4 20.4 72 3.5 N 7 11 4 6 1010.5 - 0.0
22/08:00pm 25.8 28.3 19.9 70 3.8 N 6 7 3 4 1010.2 - 0.0
22/07:30pm 26.2 29.4 19.8 68 4.1 N 2 6 1 3 1010.0 - 0.0
22/07:00pm 26.7 29.6 19.8 66 4.5 N 4 7 2 4 1009.8 - 0.0
22/06:30pm 27.3 29.6 19.9 64 4.8 N 7 11 4 6 1009.5 - 0.0
22/06:00pm 28.2 29.8 20.0 61 5.4 NNW 11 17 6 9 1009.5 1009.5 0.0
22/05:30pm 29.6 30.9 20.2 57 6.2 NNW 13 20 7 11 1009.4 - 0.0
22/05:00pm 30.3 31.3 20.2 54 6.7 NW 15 19 8 10 1009.3 - 0.0
22/04:30pm 30.7 31.9 20.0 52 7.1 NNW 13 20 7 11 1009.2 - 0.0
22/04:00pm 31.5 32.4 20.8 53 7.1 NW 17 22 9 12 1009.5 - 0.0
22/03:30pm 31.2 32.2 20.2 52 7.3 NNW 15 20 8 11 1009.5 - 0.0
22/03:00pm 31.4 32.3 20.0 50 7.5 NNW 15 22 8 12 1009.9 1009.9 0.0
22/02:30pm 31.5 32.8 20.1 50 7.5 NNW 13 20 7 11 1010.0 - 0.0
22/02:00pm 31.3 32.5 19.9 50 7.5 N 13 20 7 11 1010.3 - 0.0

Latest Capital City Observations: Canberra | Sydney | Melbourne | Brisbane | Adelaide | Perth | Hobart | Darwin

Other Formats:

Comma delimited format used in spreadsheet applications
http://www.bom.gov.au/fwo/IDD60901/IDD60901.94127.axf

JavaScript Object Notation format (JSON) in row-major order
http://www.bom.gov.au/fwo/IDD60901/IDD60901.94127.json